createdAt,value
2023-01-25T00:01:25.094Z,1031.3
2023-01-25T00:16:59.898Z,1031.3
2023-01-25T00:32:34.406Z,1031.2
2023-01-25T00:48:08.954Z,1031.2
2023-01-25T01:03:43.360Z,1031.1
2023-01-25T01:19:17.748Z,1031.2
2023-01-25T01:34:52.103Z,1031.1
2023-01-25T01:50:26.496Z,1031.1
2023-01-25T02:06:00.998Z,1030.9
2023-01-25T02:21:35.397Z,1030.8
2023-01-25T02:37:09.880Z,1030.5
2023-01-25T02:52:43.930Z,1030.2
2023-01-25T03:08:18.226Z,1030.1
2023-01-25T03:23:52.547Z,1029.9
2023-01-25T03:39:27.234Z,1029.9
2023-01-25T03:55:01.571Z,1029.8
2023-01-25T04:10:35.880Z,1029.6
2023-01-25T04:26:10.185Z,1029.5
2023-01-25T04:41:44.831Z,1029.4
2023-01-25T04:57:19.193Z,1029.3
2023-01-25T05:12:53.598Z,1029.2
2023-01-25T05:28:27.895Z,1029.2
2023-01-25T05:44:02.175Z,1029.1
2023-01-25T05:59:36.456Z,1029.1
2023-01-25T06:15:11.185Z,1029
2023-01-25T06:30:46.018Z,1029.1
2023-01-25T06:46:20.824Z,1029.2
2023-01-25T07:01:55.571Z,1029
2023-01-25T07:17:30.091Z,1028.9
2023-01-25T07:33:24.403Z,1028.8
2023-01-25T07:48:58.750Z,1028.6
2023-01-25T08:04:33.094Z,1028.5
2023-01-25T08:20:07.437Z,1028.4
2023-01-25T08:35:41.747Z,1028.2
2023-01-25T08:51:16.232Z,1028.1
2023-01-25T09:06:50.554Z,1028.1
2023-01-25T09:22:24.997Z,1027.9
2023-01-25T09:37:59.423Z,1027.8
2023-01-25T09:53:33.748Z,1027.8
2023-01-25T10:09:08.135Z,1027.7
2023-01-25T10:24:42.487Z,1027.4
2023-01-25T10:40:16.834Z,1027.2
2023-01-25T10:55:51.177Z,1026.8
2023-01-25T11:11:25.504Z,1026.7
2023-01-25T11:26:59.826Z,1026.4
2023-01-25T11:42:34.321Z,1026.2
2023-01-25T11:58:08.692Z,1025.8
2023-01-25T12:13:43.066Z,1025.7
2023-01-25T12:29:17.510Z,1025.3
2023-01-25T12:44:51.930Z,1025
2023-01-25T13:00:26.281Z,1024.8
2023-01-25T13:16:00.899Z,1024.6
2023-01-25T13:31:50.190Z,1024.4
2023-01-25T13:47:25.675Z,1024.1
2023-01-25T14:02:59.992Z,1023.8
2023-01-25T14:18:34.426Z,1023.6
2023-01-25T14:34:08.745Z,1023.3
2023-01-25T14:49:43.088Z,1023.1
2023-01-25T15:05:19.126Z,1022.9
2023-01-25T15:20:53.595Z,1022.7
